Jinnah International Airport
OPKC : now visible

Airfield :











YOU CAN JOIN US ON...

 
LOGIN :

Register | Disclaimer

   EN    FR    IT 

 









Legend :    VFR   Marginal VFR   IFR   Intensive IFR   Very Intensive IFR
Visi :
Ceiling :
>= 8 km
>= 3000ft
5 to 8 km
1000 to 3000 ft
1500m to 5 km
500 to 1000 ft
800 to 1500m
200 to 500 ft
< 800m
< 200 ft
Symbols :   Thunderstorms  Fog  Heavy snow  Heavy precipitations  Wind > 20 kt






- Airport Elevation : 100 ft
- IATA code : KHI


OPKC - Jinnah International

CURRENT METAR :
  • 270625Z 28018KT 4000 BLDU NSC 35/21 Q1004 TEMPO 25018G30KT

EXPIRED METARs :
  • 270555Z 27018KT 4000 NSC 35/21 Q1005 TEMPO 25015G25KT
  • 270525Z 26021KT 4000 BLDU SCT020 34/22 Q1005 TEMPO 25015G25KT
  • 270455Z 27022KT 4000 BLDU SCT020 33/22 Q1005 TEMPO 25015G25KT
  • 270425Z 28018KT 4000 BLDU SCT020 33/22 Q1005 TEMPO 25015G25KT
  • 270400Z 28018KT 5000 HZ SCT020 32/22 Q1004 TEMPO 25015G25KT

TAF TAF OPKC
Valid from the 27 at 06:00 until the 28 at 12:00 UTC


270330Z 2706/2812 25015G25KT 4000 BLDU NSC
TEMPO 2711/2715 24017G27KT 3000 BLDU NSC
FM280400 23018G35KT 3000 BLDU NSC
OPKR FIR / Asia



MET'MAP, your aeronautical weather chart ! - Copyright ORBIFLY December 2007 - Disclaimer

ORBIFLY MET'MAP TEAM :

Programming & Development : Alexandra Zaïnal
Concept & original design : Baudouin d'Aumeries
Assistance for programming : Marc-Olivier Méhu
Technical & hardware support : Manuel Goepfert

Contact : metmap@orbifly.com




SOURCES & CREDITS :

   NOAA       Earth
Advisory